Terminal Aerodrome Forecast
Issued by NWS

Home | Current Version | Previous Version | Graphics & Text | Print | Product List | Glossary On
Versions: 1 2 3 4 5 6 7 8 9 10 11 12 13 14 15 16
000
FTUS43 KGRB 171134
TAFMTW
TAF
KMTW 171134Z 1712/1812 22008KT P6SM SCT020 OVC060
      TEMPO 1712/1714 2SM -SHRA BKN020
     FM171400 25008KT P6SM SCT009 OVC040
      TEMPO 1714/1716 3SM -SHRA BKN020
     FM171600 27010G15KT P6SM SCT030 BKN150
     FM171800 27010G17KT P6SM SCT200
     FM172200 30005KT P6SM SKC
     FM180900 02007KT P6SM BKN025=

USA.gov is the U.S. government's official web portal to all federal, state and local government web resources and services.